createdAt,value
2017-07-18T00:01:25.553Z,19.40
2017-07-18T00:03:53.400Z,19.40
2017-07-18T00:06:21.085Z,19.30
2017-07-18T00:08:48.930Z,19.30
2017-07-18T00:11:16.590Z,19.20
2017-07-18T00:13:44.276Z,19.10
2017-07-18T00:16:12.017Z,19.10
2017-07-18T00:18:39.782Z,19.10
2017-07-18T00:21:07.651Z,19.10
2017-07-18T00:23:35.415Z,19.00
2017-07-18T00:26:03.177Z,19.00
2017-07-18T00:28:30.940Z,19.00
2017-07-18T00:30:58.807Z,18.90
2017-07-18T00:33:26.483Z,18.90
2017-07-18T00:35:54.236Z,18.90
2017-07-18T00:38:21.912Z,18.80
2017-07-18T00:40:49.661Z,18.80
2017-07-18T00:43:17.319Z,18.80
2017-07-18T00:45:45.015Z,18.80
2017-07-18T00:48:12.855Z,18.80
2017-07-18T00:50:40.617Z,18.70
2017-07-18T00:53:08.480Z,18.70
2017-07-18T00:55:36.252Z,18.70
2017-07-18T00:58:04.143Z,18.70
2017-07-18T01:00:32.613Z,18.60
2017-07-18T01:03:00.251Z,18.60
2017-07-18T01:05:28.123Z,18.60
2017-07-18T01:07:55.782Z,18.60
2017-07-18T01:10:23.448Z,18.50
2017-07-18T01:12:51.079Z,18.50
2017-07-18T01:15:18.767Z,18.50
2017-07-18T01:17:46.456Z,18.50
2017-07-18T01:20:14.199Z,18.40
2017-07-18T01:22:41.994Z,18.40
2017-07-18T01:25:10.544Z,18.30
2017-07-18T01:27:38.306Z,18.20
2017-07-18T01:30:06.174Z,18.30
2017-07-18T01:32:33.939Z,18.30
2017-07-18T01:35:01.608Z,18.30
2017-07-18T01:37:29.279Z,18.30
2017-07-18T01:39:57.029Z,18.20
2017-07-18T01:42:24.807Z,18.20
2017-07-18T01:44:52.560Z,18.20
2017-07-18T01:47:20.420Z,18.10
2017-07-18T01:49:48.187Z,18.10
2017-07-18T01:52:15.834Z,18.00
2017-07-18T01:54:43.538Z,18.00
2017-07-18T01:57:11.377Z,18.00
2017-07-18T01:59:39.140Z,18.00
2017-07-18T02:02:06.914Z,18.00
2017-07-18T02:04:34.670Z,17.90
2017-07-18T02:07:02.458Z,17.80
2017-07-18T02:09:30.299Z,17.80
2017-07-18T02:11:58.169Z,17.80
2017-07-18T02:14:25.932Z,17.80
2017-07-18T02:16:53.694Z,17.80
2017-07-18T02:19:21.458Z,17.80
2017-07-18T02:21:49.122Z,17.80
2017-07-18T02:24:16.888Z,17.80
2017-07-18T02:26:44.574Z,17.70
2017-07-18T02:29:12.412Z,17.70
2017-07-18T02:31:40.078Z,17.60
2017-07-18T02:34:07.841Z,17.60
2017-07-18T02:36:35.512Z,17.60
2017-07-18T02:39:03.196Z,17.60
2017-07-18T02:41:31.642Z,17.50
2017-07-18T02:43:59.323Z,17.50
2017-07-18T02:46:27.072Z,17.50
2017-07-18T02:48:54.858Z,17.50
2017-07-18T02:51:22.702Z,17.50
2017-07-18T02:53:50.384Z,17.40
2017-07-18T02:56:18.231Z,17.40
2017-07-18T02:58:45.999Z,17.30
2017-07-18T03:01:13.860Z,17.30
2017-07-18T03:03:42.445Z,17.30
2017-07-18T03:06:10.311Z,17.30
2017-07-18T03:08:38.077Z,17.20
2017-07-18T03:11:05.837Z,17.20
2017-07-18T03:13:33.809Z,17.20
2017-07-18T03:16:01.575Z,17.20
2017-07-18T03:18:29.440Z,17.20
2017-07-18T03:20:57.205Z,17.20
2017-07-18T03:23:24.850Z,17.20
2017-07-18T03:25:52.628Z,17.20
2017-07-18T03:28:20.391Z,17.10
2017-07-18T03:30:48.263Z,17.10
2017-07-18T03:33:15.924Z,17.10
2017-07-18T03:35:43.685Z,17.10
2017-07-18T03:38:11.384Z,17.00
2017-07-18T03:40:39.930Z,17.00
2017-07-18T03:43:07.695Z,16.90
2017-07-18T03:45:35.461Z,16.90
2017-07-18T03:48:03.092Z,16.90
2017-07-18T03:50:30.890Z,16.90
2017-07-18T03:52:58.652Z,16.90
2017-07-18T03:55:26.446Z,16.90
2017-07-18T03:57:54.175Z,16.80
2017-07-18T04:00:21.941Z,16.80
2017-07-18T04:02:49.605Z,16.80
2017-07-18T04:05:17.368Z,16.80
2017-07-18T04:07:45.035Z,16.80
2017-07-18T04:10:12.797Z,16.80
2017-07-18T04:12:40.557Z,16.80
2017-07-18T04:15:08.322Z,16.80
2017-07-18T04:17:36.086Z,16.80
2017-07-18T04:20:03.956Z,16.80
2017-07-18T04:22:31.721Z,16.80
2017-07-18T04:24:59.482Z,16.80
2017-07-18T04:27:27.350Z,16.80
2017-07-18T04:29:55.043Z,16.80
2017-07-18T04:32:22.882Z,16.80
2017-07-18T04:34:50.643Z,16.80
2017-07-18T04:37:18.403Z,16.80
2017-07-18T04:39:46.103Z,16.90
2017-07-18T04:42:14.650Z,16.90
2017-07-18T04:44:42.519Z,16.80
2017-07-18T04:47:10.281Z,16.90
2017-07-18T04:49:38.068Z,16.90
2017-07-18T04:52:05.813Z,16.90
2017-07-18T04:54:33.502Z,16.90
2017-07-18T04:57:01.339Z,16.90
2017-07-18T05:01:50.948Z,17.10
2017-07-18T05:04:18.798Z,17.00
2017-07-18T05:06:46.437Z,17.10
2017-07-18T05:09:14.152Z,17.10
2017-07-18T05:11:42.699Z,17.20
2017-07-18T05:14:10.466Z,17.10
2017-07-18T05:16:38.334Z,17.20
2017-07-18T05:19:06.016Z,17.30
2017-07-18T05:21:33.758Z,17.30
2017-07-18T05:24:01.627Z,17.40
2017-07-18T05:26:29.392Z,17.40
2017-07-18T05:28:57.256Z,17.40
2017-07-18T05:31:25.021Z,17.50
2017-07-18T05:33:52.783Z,17.50
2017-07-18T05:36:20.547Z,17.60
2017-07-18T05:38:48.314Z,17.60
2017-07-18T05:41:16.001Z,17.70
2017-07-18T05:43:43.738Z,17.70
2017-07-18T05:46:11.430Z,17.80
2017-07-18T05:48:39.267Z,17.90
2017-07-18T05:51:07.038Z,17.90
2017-07-18T05:53:34.899Z,18.00
2017-07-18T05:56:02.662Z,18.10
2017-07-18T05:58:30.428Z,18.10
2017-07-18T06:00:58.295Z,18.20
2017-07-18T06:03:26.057Z,18.30
2017-07-18T06:05:53.924Z,18.30
2017-07-18T06:08:21.690Z,18.40
2017-07-18T06:10:49.455Z,18.40
2017-07-18T06:13:17.318Z,18.50
2017-07-18T06:15:44.980Z,18.60
2017-07-18T06:18:12.743Z,18.60
2017-07-18T06:20:40.427Z,18.70
2017-07-18T06:23:08.173Z,18.80
2017-07-18T06:25:35.939Z,18.90
2017-07-18T06:28:03.701Z,18.90
2017-07-18T06:30:31.381Z,19.00
2017-07-18T06:32:59.127Z,19.10
2017-07-18T06:35:26.893Z,19.20
2017-07-18T06:37:54.576Z,19.30
2017-07-18T06:40:22.314Z,19.40
2017-07-18T06:42:50.083Z,19.50
2017-07-18T06:45:17.844Z,19.60
2017-07-18T06:47:45.484Z,19.80
2017-07-18T06:50:13.158Z,19.80
2017-07-18T06:52:40.933Z,19.90
2017-07-18T06:55:08.698Z,20.10
2017-07-18T06:57:36.462Z,20.10
2017-07-18T07:00:04.139Z,20.20
2017-07-18T07:02:31.908Z,20.30
2017-07-18T07:04:59.656Z,20.40
2017-07-18T07:07:27.515Z,20.50
2017-07-18T07:09:55.281Z,20.60
2017-07-18T07:12:22.970Z,20.60
2017-07-18T07:14:50.808Z,20.70
2017-07-18T07:17:18.572Z,20.80
2017-07-18T07:19:46.260Z,20.90
2017-07-18T07:22:14.035Z,20.90
2017-07-18T07:24:42.483Z,21.00
2017-07-18T07:27:10.969Z,21.00
2017-07-18T07:29:38.725Z,21.10
2017-07-18T07:32:06.595Z,21.20
2017-07-18T07:34:34.359Z,21.30
2017-07-18T07:37:02.128Z,21.40
2017-07-18T07:39:29.989Z,21.50
2017-07-18T07:41:57.673Z,21.60
2017-07-18T07:44:25.636Z,21.70
2017-07-18T07:46:53.381Z,21.80
2017-07-18T07:49:21.148Z,21.80
2017-07-18T07:51:49.015Z,21.90
2017-07-18T07:54:16.780Z,21.90
2017-07-18T07:56:44.645Z,22.00
2017-07-18T07:59:12.328Z,22.10
2017-07-18T08:01:40.072Z,22.20
2017-07-18T08:04:07.755Z,22.30
2017-07-18T08:06:35.498Z,22.40
2017-07-18T08:09:03.366Z,22.40
2017-07-18T08:11:31.125Z,22.50
2017-07-18T08:13:58.897Z,22.50
2017-07-18T08:16:26.760Z,22.70
2017-07-18T08:18:54.522Z,22.70
2017-07-18T08:21:22.407Z,22.80
2017-07-18T08:23:50.274Z,22.80
2017-07-18T08:26:17.945Z,22.90
2017-07-18T08:28:45.617Z,22.90
2017-07-18T08:31:14.095Z,22.90
2017-07-18T08:33:42.643Z,23.00
2017-07-18T08:36:10.408Z,22.90
2017-07-18T08:38:38.174Z,23.00
2017-07-18T08:41:05.836Z,23.00
2017-07-18T08:43:33.600Z,23.10
2017-07-18T08:46:01.565Z,23.10
2017-07-18T08:48:29.332Z,23.20
2017-07-18T08:50:57.097Z,23.20
2017-07-18T08:53:24.860Z,23.30
2017-07-18T08:55:52.622Z,23.40
2017-07-18T08:58:20.492Z,23.50
2017-07-18T09:00:48.256Z,23.60
2017-07-18T09:03:15.917Z,23.70
2017-07-18T09:05:43.683Z,23.70
2017-07-18T09:08:11.447Z,23.70
2017-07-18T09:10:39.207Z,23.80
2017-07-18T09:13:06.973Z,23.90
2017-07-18T09:15:34.738Z,23.90
2017-07-18T09:18:02.502Z,24.00
2017-07-18T09:20:30.265Z,24.10
2017-07-18T09:22:58.135Z,24.20
2017-07-18T09:25:25.899Z,24.20
2017-07-18T09:27:53.529Z,24.20
2017-07-18T09:30:21.325Z,24.30
2017-07-18T09:32:49.092Z,24.30
2017-07-18T09:35:16.854Z,24.40
2017-07-18T09:37:44.626Z,24.50
2017-07-18T09:40:12.381Z,24.70
2017-07-18T09:42:40.250Z,24.80
2017-07-18T09:45:08.014Z,25.00
2017-07-18T09:47:35.773Z,25.10
2017-07-18T09:50:03.479Z,25.30
2017-07-18T09:52:32.020Z,25.70
2017-07-18T09:54:59.785Z,25.70
2017-07-18T09:57:27.549Z,25.90
2017-07-18T09:59:55.417Z,26.00
2017-07-18T10:02:23.180Z,26.10
2017-07-18T10:04:50.947Z,26.20
2017-07-18T10:07:18.812Z,26.30
2017-07-18T10:09:46.470Z,26.40
2017-07-18T10:12:14.152Z,26.50
2017-07-18T10:14:41.820Z,26.50
2017-07-18T10:17:09.480Z,26.50
2017-07-18T10:19:37.237Z,26.60
2017-07-18T10:22:04.986Z,26.50
2017-07-18T10:24:32.853Z,26.50
2017-07-18T10:27:00.621Z,26.50
2017-07-18T10:29:28.385Z,26.50
2017-07-18T10:31:56.248Z,26.40
2017-07-18T10:34:24.013Z,26.40
2017-07-18T10:36:51.880Z,26.40
2017-07-18T10:39:19.643Z,26.40
2017-07-18T10:41:47.324Z,26.40
2017-07-18T10:44:14.997Z,26.40
2017-07-18T10:46:42.632Z,26.40
2017-07-18T10:49:10.416Z,26.40
2017-07-18T10:51:38.205Z,26.40
2017-07-18T10:54:06.845Z,26.60
2017-07-18T10:56:34.710Z,26.50
2017-07-18T10:59:02.584Z,26.70
2017-07-18T11:01:30.351Z,26.80
2017-07-18T11:03:58.221Z,26.90
2017-07-18T11:06:26.091Z,27.00
2017-07-18T11:08:53.966Z,27.10
2017-07-18T11:11:21.832Z,27.10
2017-07-18T11:13:49.674Z,27.20
2017-07-18T11:16:17.539Z,27.30
2017-07-18T11:18:45.274Z,27.40
2017-07-18T11:21:13.178Z,27.50
2017-07-18T11:23:41.574Z,27.60
2017-07-18T11:26:09.429Z,27.70
2017-07-18T11:28:37.280Z,27.80
2017-07-18T11:31:05.150Z,27.90
2017-07-18T11:33:32.913Z,27.90
2017-07-18T11:36:00.677Z,27.90
2017-07-18T11:38:28.441Z,28.00
2017-07-18T11:40:56.129Z,28.10
2017-07-18T11:43:23.793Z,28.20
2017-07-18T11:45:51.553Z,28.40
2017-07-18T11:48:19.296Z,28.50
2017-07-18T11:50:47.174Z,28.60
2017-07-18T11:53:14.830Z,28.80
2017-07-18T11:55:42.585Z,28.90
2017-07-18T11:58:10.348Z,29.10
2017-07-18T12:00:38.032Z,29.20
2017-07-18T12:03:05.879Z,29.30
2017-07-18T12:05:33.643Z,29.40
2017-07-18T12:08:01.289Z,29.50
2017-07-18T12:10:29.067Z,29.60
2017-07-18T12:12:56.835Z,29.60
2017-07-18T12:15:24.499Z,29.70
2017-07-18T12:17:52.181Z,29.70
2017-07-18T12:20:19.923Z,29.80
2017-07-18T12:22:47.788Z,29.80
2017-07-18T12:25:15.449Z,29.90
2017-07-18T12:27:43.316Z,29.90
2017-07-18T12:30:11.081Z,30.00
2017-07-18T12:32:38.741Z,30.00
2017-07-18T12:35:06.610Z,30.00
2017-07-18T12:37:34.239Z,30.00
2017-07-18T12:40:02.035Z,30.00
2017-07-18T12:42:29.716Z,30.00
2017-07-18T12:44:57.463Z,30.10
2017-07-18T12:47:25.127Z,30.20
2017-07-18T12:49:52.887Z,30.20
2017-07-18T12:52:20.650Z,30.20
2017-07-18T12:54:48.541Z,30.20
2017-07-18T12:57:16.282Z,30.30
2017-07-18T12:59:43.973Z,30.30
2017-07-18T13:02:11.742Z,30.40
2017-07-18T13:04:40.317Z,30.50
2017-07-18T13:07:07.985Z,30.40
2017-07-18T13:09:35.821Z,30.50
2017-07-18T13:12:03.583Z,30.60
2017-07-18T13:14:31.211Z,30.60
2017-07-18T13:16:58.931Z,30.60
2017-07-18T13:19:26.587Z,30.70
2017-07-18T13:21:54.354Z,30.70
2017-07-18T13:24:22.029Z,30.80
2017-07-18T13:26:50.581Z,30.70
2017-07-18T13:29:18.447Z,30.70
2017-07-18T13:31:46.100Z,30.70
2017-07-18T13:34:13.796Z,30.70
2017-07-18T13:36:41.635Z,30.70
2017-07-18T13:39:09.406Z,30.80
2017-07-18T13:41:37.267Z,30.80
2017-07-18T13:44:05.032Z,30.80
2017-07-18T13:46:32.690Z,30.80
2017-07-18T13:49:00.457Z,30.90
2017-07-18T13:51:28.137Z,30.90
2017-07-18T13:53:55.899Z,30.80
2017-07-18T13:56:23.648Z,30.80
2017-07-18T13:58:51.413Z,30.80
2017-07-18T14:01:19.173Z,30.90
2017-07-18T14:03:46.938Z,30.80
2017-07-18T14:06:14.639Z,30.90
2017-07-18T14:08:42.393Z,30.90
2017-07-18T14:11:10.128Z,30.90
2017-07-18T14:13:37.921Z,30.90
2017-07-18T14:16:05.761Z,30.90
2017-07-18T14:18:33.552Z,30.90
2017-07-18T14:21:01.286Z,31.00
2017-07-18T14:23:29.053Z,31.00
2017-07-18T14:25:56.720Z,31.00
2017-07-18T14:28:24.394Z,31.00
2017-07-18T14:30:52.059Z,31.10
2017-07-18T14:33:19.804Z,31.10
2017-07-18T14:35:47.566Z,31.10
2017-07-18T14:38:15.332Z,31.10
2017-07-18T14:40:43.097Z,31.10
2017-07-18T14:43:10.961Z,31.10
2017-07-18T14:45:38.596Z,31.10
2017-07-18T14:48:06.935Z,31.00
2017-07-18T14:50:34.767Z,30.90
2017-07-18T14:53:02.531Z,30.90
2017-07-18T14:55:30.293Z,30.80
2017-07-18T14:57:57.924Z,30.80
2017-07-18T15:00:25.822Z,30.70
2017-07-18T15:02:53.504Z,30.70
2017-07-18T15:05:21.251Z,30.60
2017-07-18T15:07:49.014Z,30.60
2017-07-18T15:10:16.778Z,30.50
2017-07-18T15:12:44.460Z,30.40
2017-07-18T15:15:12.204Z,30.30
2017-07-18T15:17:39.968Z,30.30
2017-07-18T15:20:07.731Z,30.20
2017-07-18T15:22:35.421Z,30.20
2017-07-18T15:25:03.363Z,30.00
2017-07-18T15:27:31.132Z,29.80
2017-07-18T15:29:58.807Z,29.60
2017-07-18T15:32:26.655Z,29.60
2017-07-18T15:34:54.420Z,29.60
2017-07-18T15:37:22.287Z,29.70
2017-07-18T15:39:49.938Z,29.60
2017-07-18T15:42:17.712Z,29.40
2017-07-18T15:44:45.385Z,29.40
2017-07-18T15:47:13.055Z,29.30
2017-07-18T15:49:40.727Z,29.20
2017-07-18T15:52:08.462Z,29.20
2017-07-18T15:54:36.231Z,29.10
2017-07-18T15:57:03.991Z,28.90
2017-07-18T15:59:31.873Z,28.90
2017-07-18T16:02:00.033Z,28.80
2017-07-18T16:04:27.801Z,28.70
2017-07-18T16:06:55.562Z,28.70
2017-07-18T16:09:23.233Z,28.70
2017-07-18T16:11:50.986Z,28.70
2017-07-18T16:14:18.750Z,28.60
2017-07-18T16:16:46.384Z,28.50
2017-07-18T16:19:14.108Z,28.50
2017-07-18T16:21:42.776Z,28.30
2017-07-18T16:24:10.648Z,28.30
2017-07-18T16:26:38.434Z,28.20
2017-07-18T16:29:06.973Z,27.90
2017-07-18T16:31:34.652Z,27.90
2017-07-18T16:34:02.420Z,27.80
2017-07-18T16:36:30.081Z,27.70
2017-07-18T16:38:57.826Z,27.60
2017-07-18T16:41:25.514Z,27.60
2017-07-18T16:43:53.355Z,27.50
2017-07-18T16:46:20.989Z,27.40
2017-07-18T16:48:48.719Z,27.20
2017-07-18T16:51:17.260Z,26.90
2017-07-18T16:53:44.923Z,26.80
2017-07-18T16:56:12.798Z,26.80
2017-07-18T16:58:40.479Z,26.70
2017-07-18T17:01:10.466Z,26.70
2017-07-18T17:03:38.442Z,26.50
2017-07-18T17:06:06.331Z,26.50
2017-07-18T17:08:34.393Z,26.50
2017-07-18T17:11:02.359Z,26.40
2017-07-18T17:13:30.232Z,26.40
2017-07-18T17:15:58.204Z,26.30
2017-07-18T17:18:26.070Z,26.20
2017-07-18T17:20:54.040Z,26.20
2017-07-18T17:23:21.897Z,26.20
2017-07-18T17:25:49.869Z,26.20
2017-07-18T17:28:17.756Z,26.10
2017-07-18T17:30:46.428Z,26.10
2017-07-18T17:33:14.295Z,26.10
2017-07-18T17:35:42.160Z,26.10
2017-07-18T17:38:10.020Z,26.20
2017-07-18T17:40:37.871Z,26.20
2017-07-18T17:43:05.634Z,26.20
2017-07-18T17:45:33.506Z,26.10
2017-07-18T17:48:01.264Z,26.10
2017-07-18T17:50:29.030Z,26.00
2017-07-18T17:52:56.899Z,25.90
2017-07-18T17:55:24.660Z,25.80
2017-07-18T17:57:52.552Z,25.70
2017-07-18T18:00:21.546Z,25.70
2017-07-18T18:02:50.001Z,25.70
2017-07-18T18:05:18.625Z,25.60
2017-07-18T18:07:46.895Z,25.60
2017-07-18T18:10:16.970Z,25.50
2017-07-18T18:12:46.177Z,25.50
2017-07-18T18:15:13.838Z,25.50
2017-07-18T18:17:41.508Z,25.40
2017-07-18T18:20:09.470Z,25.30
2017-07-18T18:22:37.340Z,25.20
2017-07-18T18:25:05.410Z,25.10
2017-07-18T18:27:33.069Z,25.10
2017-07-18T18:30:01.572Z,24.90
2017-07-18T18:32:29.520Z,24.90
2017-07-18T18:34:57.387Z,24.90
2017-07-18T18:37:25.360Z,24.80
2017-07-18T18:39:53.040Z,24.70
2017-07-18T18:42:20.994Z,24.70
2017-07-18T18:44:48.668Z,24.60
2017-07-18T18:47:16.928Z,24.60
2017-07-18T18:49:44.584Z,24.50
2017-07-18T18:52:12.556Z,24.50
2017-07-18T18:54:40.424Z,24.50
2017-07-18T18:57:09.012Z,24.40
2017-07-18T18:59:36.874Z,24.30
2017-07-18T19:02:04.636Z,24.40
2017-07-18T19:04:33.321Z,24.30
2017-07-18T19:07:01.090Z,24.30
2017-07-18T19:09:29.364Z,24.20
2017-07-18T19:11:57.172Z,24.20
2017-07-18T19:14:25.075Z,24.10
2017-07-18T19:16:53.167Z,24.10
2017-07-18T19:19:20.930Z,24.10
2017-07-18T19:21:48.920Z,24.00
2017-07-18T19:24:16.771Z,24.00
2017-07-18T19:26:44.793Z,23.90
2017-07-18T19:29:12.616Z,23.90
2017-07-18T19:31:41.420Z,23.80
2017-07-18T19:34:09.074Z,23.70
2017-07-18T19:36:36.771Z,23.70
2017-07-18T19:39:04.450Z,23.70
2017-07-18T19:41:32.245Z,23.60
2017-07-18T19:44:00.420Z,23.60
2017-07-18T19:46:28.183Z,23.60
2017-07-18T19:49:00.682Z,23.40
2017-07-18T19:51:28.647Z,23.40
2017-07-18T19:53:56.495Z,23.30
2017-07-18T19:56:24.256Z,23.20
2017-07-18T19:58:52.021Z,23.10
2017-07-18T20:01:19.890Z,23.10
2017-07-18T20:03:47.566Z,23.10
2017-07-18T20:06:15.212Z,23.00
2017-07-18T20:08:42.977Z,23.00
2017-07-18T20:11:10.741Z,22.90
2017-07-18T20:13:38.409Z,22.80
2017-07-18T20:16:06.170Z,22.70
2017-07-18T20:18:33.958Z,22.60
2017-07-18T20:21:01.694Z,22.50
2017-07-18T20:23:29.390Z,22.40
2017-07-18T20:25:57.224Z,22.30
2017-07-18T20:28:24.991Z,22.30
2017-07-18T20:30:52.752Z,22.30
2017-07-18T20:33:20.524Z,22.30
2017-07-18T20:35:48.283Z,22.20
2017-07-18T20:38:16.043Z,22.10
2017-07-18T20:40:43.844Z,22.10
2017-07-18T20:43:12.514Z,21.90
2017-07-18T20:45:40.353Z,21.90
2017-07-18T20:48:08.044Z,21.80
2017-07-18T20:50:35.790Z,21.80
2017-07-18T20:53:03.473Z,21.80
2017-07-18T20:55:31.214Z,21.70
2017-07-18T20:57:58.910Z,21.70
2017-07-18T21:00:27.381Z,21.50
2017-07-18T21:02:55.242Z,21.40
2017-07-18T21:05:22.919Z,21.40
2017-07-18T21:07:51.393Z,21.30
2017-07-18T21:10:19.152Z,21.20
2017-07-18T21:12:46.779Z,21.30
2017-07-18T21:15:14.571Z,21.30
2017-07-18T21:17:42.422Z,21.20
2017-07-18T21:20:10.189Z,21.20
2017-07-18T21:22:37.952Z,21.10
2017-07-18T21:25:05.717Z,21.10
2017-07-18T21:27:33.599Z,21.10
2017-07-18T21:30:01.450Z,21.00
2017-07-18T21:32:29.131Z,20.90
2017-07-18T21:34:56.877Z,20.80
2017-07-18T21:37:24.641Z,20.80
2017-07-18T21:39:52.403Z,20.70
2017-07-18T21:42:20.065Z,20.70
2017-07-18T21:44:47.734Z,20.70
2017-07-18T21:47:15.389Z,20.50
2017-07-18T21:49:43.076Z,20.40
2017-07-18T21:52:10.919Z,20.40
2017-07-18T21:54:38.806Z,20.30
2017-07-18T21:57:06.649Z,20.30
2017-07-18T21:59:34.416Z,20.20
2017-07-18T22:02:02.285Z,20.20
2017-07-18T22:04:30.048Z,20.20
2017-07-18T22:06:57.844Z,20.20
2017-07-18T22:09:25.574Z,20.20
2017-07-18T22:11:53.444Z,20.20
2017-07-18T22:14:21.205Z,20.20
2017-07-18T22:16:49.075Z,20.20
2017-07-18T22:19:16.835Z,20.20
2017-07-18T22:21:44.500Z,20.20
2017-07-18T22:24:12.263Z,20.10
2017-07-18T22:26:39.944Z,20.10
2017-07-18T22:29:07.800Z,20.10
2017-07-18T22:31:35.556Z,20.10
2017-07-18T22:34:03.318Z,20.00
2017-07-18T22:36:31.085Z,20.00
2017-07-18T22:38:58.951Z,20.00
2017-07-18T22:41:26.596Z,20.10
2017-07-18T22:43:54.376Z,20.00
2017-07-18T22:46:22.141Z,20.00
2017-07-18T22:48:49.908Z,20.00
2017-07-18T22:51:17.773Z,20.00
2017-07-18T22:53:45.436Z,19.90
2017-07-18T22:56:13.116Z,19.80
2017-07-18T22:58:40.862Z,19.80
2017-07-18T23:01:08.730Z,19.80
2017-07-18T23:03:36.493Z,19.70
2017-07-18T23:06:04.356Z,19.80
2017-07-18T23:08:32.124Z,19.80
2017-07-18T23:10:59.886Z,19.80
2017-07-18T23:13:27.651Z,19.80
2017-07-18T23:15:55.337Z,19.70
2017-07-18T23:18:23.181Z,19.70
2017-07-18T23:20:50.858Z,19.60
2017-07-18T23:23:18.538Z,19.60
2017-07-18T23:25:47.088Z,19.50
2017-07-18T23:28:14.748Z,19.40
2017-07-18T23:30:42.514Z,19.40
2017-07-18T23:33:10.277Z,19.40
2017-07-18T23:35:38.046Z,19.30
2017-07-18T23:38:05.806Z,19.30
2017-07-18T23:40:33.570Z,19.30
2017-07-18T23:43:01.336Z,19.30
2017-07-18T23:45:29.200Z,19.20
2017-07-18T23:47:56.964Z,19.20
2017-07-18T23:50:24.731Z,19.20
2017-07-18T23:52:52.520Z,19.20
2017-07-18T23:55:20.291Z,19.20
2017-07-18T23:57:48.147Z,19.20
